sensor_id;sensor_type;location;lat;lon;timestamp;pressure;altitude;pressure_sealevel;temperature;humidity
37291;BME280;23175;-33.706;151.094;2023-03-13T00:00:20;99948.81;;;19.34;51.46
37291;BME280;23175;-33.706;151.094;2023-03-13T00:02:50;99947.67;;;17.38;55.66
37291;BME280;23175;-33.706;151.094;2023-03-13T00:05:20;99946.10;;;18.31;56.05
37291;BME280;23175;-33.706;151.094;2023-03-13T00:07:51;99943.34;;;18.63;54.65
37291;BME280;23175;-33.706;151.094;2023-03-13T00:10:20;99941.64;;;19.35;50.46
37291;BME280;23175;-33.706;151.094;2023-03-13T00:12:50;99943.31;;;19.15;50.27
37291;BME280;23175;-33.706;151.094;2023-03-13T00:15:21;99936.15;;;19.03;50.17
37291;BME280;23175;-33.706;151.094;2023-03-13T00:17:51;99934.65;;;17.54;52.56
37291;BME280;23175;-33.706;151.094;2023-03-13T00:20:21;99932.03;;;18.07;52.76
37291;BME280;23175;-33.706;151.094;2023-03-13T00:22:51;99934.06;;;17.19;52.38
37291;BME280;23175;-33.706;151.094;2023-03-13T00:25:21;99944.23;;;16.18;56.16
37291;BME280;23175;-33.706;151.094;2023-03-13T00:27:52;99954.02;;;18.47;51.26
37291;BME280;23175;-33.706;151.094;2023-03-13T00:30:22;99954.05;;;18.81;50.67
37291;BME280;23175;-33.706;151.094;2023-03-13T00:32:52;99959.40;;;17.21;52.94
37291;BME280;23175;-33.706;151.094;2023-03-13T00:35:23;99956.27;;;17.69;52.77
37291;BME280;23175;-33.706;151.094;2023-03-13T00:37:53;99963.24;;;19.01;49.21
37291;BME280;23175;-33.706;151.094;2023-03-13T00:40:24;99964.50;;;18.45;49.78
37291;BME280;23175;-33.706;151.094;2023-03-13T00:42:54;99966.14;;;17.48;52.09
37291;BME280;23175;-33.706;151.094;2023-03-13T00:45:24;99958.57;;;19.53;48.51
37291;BME280;23175;-33.706;151.094;2023-03-13T00:47:54;99957.69;;;18.42;49.36
37291;BME280;23175;-33.706;151.094;2023-03-13T00:50:24;99953.25;;;18.19;50.25
37291;BME280;23175;-33.706;151.094;2023-03-13T00:52:55;99953.10;;;17.72;50.54
37291;BME280;23175;-33.706;151.094;2023-03-13T00:55:26;99951.11;;;17.86;51.37
37291;BME280;23175;-33.706;151.094;2023-03-13T00:57:55;99952.80;;;17.86;50.48
37291;BME280;23175;-33.706;151.094;2023-03-13T01:00:26;99952.43;;;17.02;51.90
37291;BME280;23175;-33.706;151.094;2023-03-13T01:02:57;99943.23;;;17.63;49.95
37291;BME280;23175;-33.706;151.094;2023-03-13T01:05:27;99942.05;;;18.52;48.58
37291;BME280;23175;-33.706;151.094;2023-03-13T01:07:56;99936.41;;;18.35;49.39
37291;BME280;23175;-33.706;151.094;2023-03-13T01:10:26;99938.25;;;19.47;46.54
37291;BME280;23175;-33.706;151.094;2023-03-13T01:12:57;99936.06;;;20.40;45.96
37291;BME280;23175;-33.706;151.094;2023-03-13T01:15:27;99940.40;;;17.16;50.76
37291;BME280;23175;-33.706;151.094;2023-03-13T01:17:57;99941.65;;;19.44;46.40
37291;BME280;23175;-33.706;151.094;2023-03-13T01:20:29;99940.73;;;20.16;45.79
37291;BME280;23175;-33.706;151.094;2023-03-13T01:22:59;99942.34;;;21.27;43.94
37291;BME280;23175;-33.706;151.094;2023-03-13T01:25:31;99950.54;;;18.22;47.41
37291;BME280;23175;-33.706;151.094;2023-03-13T01:28:04;99948.32;;;18.02;49.15
37291;BME280;23175;-33.706;151.094;2023-03-13T01:30:34;99949.17;;;18.60;47.83
37291;BME280;23175;-33.706;151.094;2023-03-13T01:33:05;99956.04;;;18.77;48.41
37291;BME280;23175;-33.706;151.094;2023-03-13T01:35:35;99956.85;;;18.46;48.90
37291;BME280;23175;-33.706;151.094;2023-03-13T01:38:05;99956.13;;;19.47;47.37
37291;BME280;23175;-33.706;151.094;2023-03-13T01:40:41;99957.71;;;19.60;46.78
37291;BME280;23175;-33.706;151.094;2023-03-13T01:43:20;99953.32;;;21.23;44.49
37291;BME280;23175;-33.706;151.094;2023-03-13T01:46:12;99950.81;;;21.16;44.99
37291;BME280;23175;-33.706;151.094;2023-03-13T01:48:47;99951.49;;;20.91;44.48
37291;BME280;23175;-33.706;151.094;2023-03-13T01:51:22;99949.65;;;20.23;45.00
37291;BME280;23175;-33.706;151.094;2023-03-13T01:53:59;99950.97;;;19.23;45.97
37291;BME280;23175;-33.706;151.094;2023-03-13T01:56:36;99945.18;;;20.36;46.33
37291;BME280;23175;-33.706;151.094;2023-03-13T01:59:09;99941.48;;;20.25;45.68
37291;BME280;23175;-33.706;151.094;2023-03-13T02:01:44;99935.20;;;19.68;46.42
37291;BME280;23175;-33.706;151.094;2023-03-13T02:04:16;99934.00;;;20.70;44.39
37291;BME280;23175;-33.706;151.094;2023-03-13T02:06:49;99933.22;;;18.62;47.61
37291;BME280;23175;-33.706;151.094;2023-03-13T02:09:23;99934.81;;;19.09;46.95
37291;BME280;23175;-33.706;151.094;2023-03-13T02:11:58;99930.89;;;20.68;44.64
37291;BME280;23175;-33.706;151.094;2023-03-13T02:14:33;99923.14;;;19.40;46.57
37291;BME280;23175;-33.706;151.094;2023-03-13T02:17:06;99923.76;;;21.02;43.29
37291;BME280;23175;-33.706;151.094;2023-03-13T02:19:41;99926.40;;;20.16;44.04
37291;BME280;23175;-33.706;151.094;2023-03-13T02:22:18;99925.04;;;20.38;44.26
37291;BME280;23175;-33.706;151.094;2023-03-13T02:24:55;99921.29;;;20.06;44.53
37291;BME280;23175;-33.706;151.094;2023-03-13T02:27:28;99922.54;;;18.37;47.80
37291;BME280;23175;-33.706;151.094;2023-03-13T02:29:58;99921.93;;;19.35;46.28
37291;BME280;23175;-33.706;151.094;2023-03-13T02:32:31;99927.45;;;20.04;45.40
37291;BME280;23175;-33.706;151.094;2023-03-13T02:35:04;99928.18;;;20.13;45.63
37291;BME280;23175;-33.706;151.094;2023-03-13T02:37:37;99925.63;;;18.61;46.77
37291;BME280;23175;-33.706;151.094;2023-03-13T02:40:11;99922.32;;;20.46;44.53
37291;BME280;23175;-33.706;151.094;2023-03-13T02:42:44;99919.94;;;20.31;43.72
37291;BME280;23175;-33.706;151.094;2023-03-13T02:45:16;99924.26;;;21.36;42.18
37291;BME280;23175;-33.706;151.094;2023-03-13T02:47:46;99926.99;;;18.34;47.83
37291;BME280;23175;-33.706;151.094;2023-03-13T02:50:17;99919.68;;;19.86;45.48
37291;BME280;23175;-33.706;151.094;2023-03-13T02:52:50;99922.30;;;19.31;43.90
37291;BME280;23175;-33.706;151.094;2023-03-13T02:55:25;99923.15;;;19.60;44.96
37291;BME280;23175;-33.706;151.094;2023-03-13T02:57:58;99925.45;;;19.05;46.27
37291;BME280;23175;-33.706;151.094;2023-03-13T03:00:28;99926.55;;;20.38;44.59
37291;BME280;23175;-33.706;151.094;2023-03-13T03:02:58;99925.59;;;19.15;45.28
37291;BME280;23175;-33.706;151.094;2023-03-13T03:05:28;99930.94;;;19.42;45.82
37291;BME280;23175;-33.706;151.094;2023-03-13T03:07:59;99926.69;;;19.43;45.75
37291;BME280;23175;-33.706;151.094;2023-03-13T03:10:32;99926.01;;;19.77;43.96
37291;BME280;23175;-33.706;151.094;2023-03-13T03:13:05;99923.97;;;18.75;45.27
37291;BME280;23175;-33.706;151.094;2023-03-13T03:15:35;99920.36;;;17.98;47.92
37291;BME280;23175;-33.706;151.094;2023-03-13T03:18:05;99916.21;;;19.73;45.53
37291;BME280;23175;-33.706;151.094;2023-03-13T03:20:36;99913.12;;;21.02;44.07
37291;BME280;23175;-33.706;151.094;2023-03-13T03:23:06;99911.81;;;20.70;43.13
37291;BME280;23175;-33.706;151.094;2023-03-13T03:25:37;99909.99;;;18.98;45.75
37291;BME280;23175;-33.706;151.094;2023-03-13T03:28:07;99904.13;;;21.75;41.65
37291;BME280;23175;-33.706;151.094;2023-03-13T03:30:37;99905.59;;;20.42;43.84
37291;BME280;23175;-33.706;151.094;2023-03-13T03:33:08;99899.15;;;19.83;43.75
37291;BME280;23175;-33.706;151.094;2023-03-13T03:35:38;99902.33;;;19.60;44.58
37291;BME280;23175;-33.706;151.094;2023-03-13T03:38:08;99899.63;;;22.09;40.14
37291;BME280;23175;-33.706;151.094;2023-03-13T03:40:39;99897.38;;;18.58;43.93
37291;BME280;23175;-33.706;151.094;2023-03-13T03:43:11;99897.92;;;17.54;45.75
37291;BME280;23175;-33.706;151.094;2023-03-13T03:45:41;99900.05;;;19.30;43.54
37291;BME280;23175;-33.706;151.094;2023-03-13T03:48:11;99891.14;;;20.87;41.26
37291;BME280;23175;-33.706;151.094;2023-03-13T03:50:42;99891.38;;;18.44;45.60
37291;BME280;23175;-33.706;151.094;2023-03-13T03:53:12;99890.77;;;19.42;43.13
37291;BME280;23175;-33.706;151.094;2023-03-13T03:55:43;99896.48;;;19.78;43.78
37291;BME280;23175;-33.706;151.094;2023-03-13T03:58:14;99896.93;;;20.68;42.31
37291;BME280;23175;-33.706;151.094;2023-03-13T04:00:45;99901.07;;;20.40;44.03
37291;BME280;23175;-33.706;151.094;2023-03-13T04:03:15;99895.19;;;21.53;42.37
37291;BME280;23175;-33.706;151.094;2023-03-13T04:05:46;99895.87;;;22.25;41.86
37291;BME280;23175;-33.706;151.094;2023-03-13T04:08:17;99902.24;;;21.37;43.02
37291;BME280;23175;-33.706;151.094;2023-03-13T04:10:53;99903.78;;;20.65;43.13
37291;BME280;23175;-33.706;151.094;2023-03-13T04:13:23;99909.99;;;18.13;47.35
37291;BME280;23175;-33.706;151.094;2023-03-13T04:15:53;99904.17;;;18.33;48.00
37291;BME280;23175;-33.706;151.094;2023-03-13T04:18:24;99901.37;;;19.54;45.97
37291;BME280;23175;-33.706;151.094;2023-03-13T04:21:01;99906.08;;;18.54;47.67
37291;BME280;23175;-33.706;151.094;2023-03-13T04:23:31;99903.34;;;19.95;45.79
37291;BME280;23175;-33.706;151.094;2023-03-13T04:26:00;99898.21;;;20.72;44.92
37291;BME280;23175;-33.706;151.094;2023-03-13T04:28:32;99904.71;;;18.53;48.77
37291;BME280;23175;-33.706;151.094;2023-03-13T04:31:03;99898.75;;;20.19;44.68
37291;BME280;23175;-33.706;151.094;2023-03-13T04:33:33;99899.12;;;20.70;44.03
37291;BME280;23175;-33.706;151.094;2023-03-13T04:36:03;99904.37;;;19.78;46.61
37291;BME280;23175;-33.706;151.094;2023-03-13T04:38:34;99901.25;;;19.79;45.32
37291;BME280;23175;-33.706;151.094;2023-03-13T04:41:04;99895.30;;;20.79;44.89
37291;BME280;23175;-33.706;151.094;2023-03-13T04:43:34;99896.34;;;19.56;46.38
37291;BME280;23175;-33.706;151.094;2023-03-13T04:46:05;99890.20;;;20.45;45.42
37291;BME280;23175;-33.706;151.094;2023-03-13T04:48:36;99890.52;;;20.44;44.93
37291;BME280;23175;-33.706;151.094;2023-03-13T04:51:07;99890.42;;;18.87;46.87
37291;BME280;23175;-33.706;151.094;2023-03-13T04:53:37;99886.07;;;19.43;45.70
37291;BME280;23175;-33.706;151.094;2023-03-13T04:56:08;99889.12;;;20.11;44.79
37291;BME280;23175;-33.706;151.094;2023-03-13T04:58:51;99885.28;;;19.79;45.27
37291;BME280;23175;-33.706;151.094;2023-03-13T05:01:22;99882.98;;;19.37;46.27
37291;BME280;23175;-33.706;151.094;2023-03-13T05:03:52;99883.74;;;18.83;47.53
37291;BME280;23175;-33.706;151.094;2023-03-13T05:06:22;99882.63;;;20.82;43.82
37291;BME280;23175;-33.706;151.094;2023-03-13T05:08:53;99882.75;;;21.68;42.06
37291;BME280;23175;-33.706;151.094;2023-03-13T05:11:23;99884.86;;;18.20;47.11
37291;BME280;23175;-33.706;151.094;2023-03-13T05:13:54;99885.77;;;20.14;43.86
37291;BME280;23175;-33.706;151.094;2023-03-13T05:16:24;99886.21;;;21.32;42.53
37291;BME280;23175;-33.706;151.094;2023-03-13T05:18:54;99888.89;;;21.41;42.64
37291;BME280;23175;-33.706;151.094;2023-03-13T05:21:25;99891.78;;;19.65;46.84
37291;BME280;23175;-33.706;151.094;2023-03-13T05:23:55;99888.04;;;21.44;43.70
37291;BME280;23175;-33.706;151.094;2023-03-13T05:26:26;99888.12;;;18.51;49.35
37291;BME280;23175;-33.706;151.094;2023-03-13T05:28:56;99882.14;;;19.21;46.80
37291;BME280;23175;-33.706;151.094;2023-03-13T05:31:27;99879.35;;;18.80;47.74
37291;BME280;23175;-33.706;151.094;2023-03-13T05:33:57;99876.16;;;20.75;45.48
37291;BME280;23175;-33.706;151.094;2023-03-13T05:36:27;99876.40;;;20.21;47.74
37291;BME280;23175;-33.706;151.094;2023-03-13T05:38:58;99879.50;;;22.63;44.75
37291;BME280;23175;-33.706;151.094;2023-03-13T05:41:27;99884.21;;;19.61;49.15
37291;BME280;23175;-33.706;151.094;2023-03-13T05:43:57;99891.13;;;15.97;56.95
37291;BME280;23175;-33.706;151.094;2023-03-13T05:46:27;99891.87;;;15.73;60.76
37291;BME280;23175;-33.706;151.094;2023-03-13T05:48:58;99892.80;;;16.36;60.50
37291;BME280;23175;-33.706;151.094;2023-03-13T05:51:28;99892.28;;;17.15;59.86
37291;BME280;23175;-33.706;151.094;2023-03-13T05:53:59;99894.98;;;18.80;56.20
37291;BME280;23175;-33.706;151.094;2023-03-13T05:56:28;99892.60;;;20.83;53.37
37291;BME280;23175;-33.706;151.094;2023-03-13T05:58:59;99886.41;;;19.64;54.75
37291;BME280;23175;-33.706;151.094;2023-03-13T06:01:29;99878.12;;;19.90;53.65
37291;BME280;23175;-33.706;151.094;2023-03-13T06:03:59;99875.77;;;20.35;53.52
37291;BME280;23175;-33.706;151.094;2023-03-13T06:06:30;99870.96;;;21.52;50.98
37291;BME280;23175;-33.706;151.094;2023-03-13T06:09:00;99878.61;;;18.70;56.41
37291;BME280;23175;-33.706;151.094;2023-03-13T06:11:36;99878.02;;;20.94;50.40
37291;BME280;23175;-33.706;151.094;2023-03-13T06:14:06;99880.79;;;20.04;53.36
37291;BME280;23175;-33.706;151.094;2023-03-13T06:16:36;99883.52;;;21.58;50.62
37291;BME280;23175;-33.706;151.094;2023-03-13T06:19:07;99884.87;;;21.11;51.31
37291;BME280;23175;-33.706;151.094;2023-03-13T06:21:38;99888.79;;;20.47;52.13
37291;BME280;23175;-33.706;151.094;2023-03-13T06:24:11;99896.57;;;19.74;52.51
37291;BME280;23175;-33.706;151.094;2023-03-13T06:26:42;99903.93;;;20.33;53.21
37291;BME280;23175;-33.706;151.094;2023-03-13T06:29:12;99913.56;;;19.00;55.41
37291;BME280;23175;-33.706;151.094;2023-03-13T06:31:43;99915.76;;;20.61;52.40
37291;BME280;23175;-33.706;151.094;2023-03-13T06:34:14;99919.73;;;21.02;52.56
37291;BME280;23175;-33.706;151.094;2023-03-13T06:36:45;99915.01;;;22.07;50.71
37291;BME280;23175;-33.706;151.094;2023-03-13T06:39:15;99912.18;;;19.02;55.61
37291;BME280;23175;-33.706;151.094;2023-03-13T06:41:46;99900.43;;;18.73;55.07
37291;BME280;23175;-33.706;151.094;2023-03-13T06:44:16;99893.27;;;20.48;50.47
37291;BME280;23175;-33.706;151.094;2023-03-13T06:46:46;99896.82;;;17.79;55.64
37291;BME280;23175;-33.706;151.094;2023-03-13T06:49:17;99904.02;;;19.52;53.43
37291;BME280;23175;-33.706;151.094;2023-03-13T06:51:47;99906.05;;;19.89;51.21
37291;BME280;23175;-33.706;151.094;2023-03-13T06:54:17;99905.40;;;21.61;49.87
37291;BME280;23175;-33.706;151.094;2023-03-13T06:56:48;99902.40;;;20.24;49.73
37291;BME280;23175;-33.706;151.094;2023-03-13T06:59:18;99901.58;;;20.94;50.10
37291;BME280;23175;-33.706;151.094;2023-03-13T07:01:49;99906.55;;;21.56;49.01
37291;BME280;23175;-33.706;151.094;2023-03-13T07:04:18;99910.77;;;21.36;49.53
37291;BME280;23175;-33.706;151.094;2023-03-13T07:06:49;99912.97;;;21.59;48.93
37291;BME280;23175;-33.706;151.094;2023-03-13T07:09:19;99918.41;;;22.15;48.63
37291;BME280;23175;-33.706;151.094;2023-03-13T07:11:50;99924.74;;;21.47;49.21
37291;BME280;23175;-33.706;151.094;2023-03-13T07:14:20;99929.82;;;22.25;49.24
37291;BME280;23175;-33.706;151.094;2023-03-13T07:16:50;99929.77;;;22.18;48.97
37291;BME280;23175;-33.706;151.094;2023-03-13T07:19:21;99925.71;;;22.03;49.45
37291;BME280;23175;-33.706;151.094;2023-03-13T07:21:51;99928.00;;;22.11;49.13
37291;BME280;23175;-33.706;151.094;2023-03-13T07:24:22;99929.07;;;22.38;49.23
37291;BME280;23175;-33.706;151.094;2023-03-13T07:26:53;99935.99;;;22.20;49.49
37291;BME280;23175;-33.706;151.094;2023-03-13T07:29:23;99939.08;;;22.53;49.00
37291;BME280;23175;-33.706;151.094;2023-03-13T07:31:54;99939.65;;;21.81;50.19
37291;BME280;23175;-33.706;151.094;2023-03-13T07:34:24;99941.49;;;22.17;49.24
37291;BME280;23175;-33.706;151.094;2023-03-13T07:36:55;99939.97;;;22.49;48.75
37291;BME280;23175;-33.706;151.094;2023-03-13T07:39:25;99936.07;;;22.46;49.36
37291;BME280;23175;-33.706;151.094;2023-03-13T07:41:55;99930.88;;;22.88;48.61
37291;BME280;23175;-33.706;151.094;2023-03-13T07:44:25;99930.16;;;21.06;51.00
37291;BME280;23175;-33.706;151.094;2023-03-13T07:46:58;99932.33;;;22.23;49.13
37291;BME280;23175;-33.706;151.094;2023-03-13T07:49:28;99935.01;;;22.63;48.31
37291;BME280;23175;-33.706;151.094;2023-03-13T07:51:59;99935.62;;;22.39;48.12
37291;BME280;23175;-33.706;151.094;2023-03-13T07:54:29;99936.26;;;22.69;47.75
37291;BME280;23175;-33.706;151.094;2023-03-13T07:57:00;99934.98;;;22.73;47.24
37291;BME280;23175;-33.706;151.094;2023-03-13T07:59:30;99940.69;;;22.52;47.88
37291;BME280;23175;-33.706;151.094;2023-03-13T08:02:01;99942.97;;;22.65;47.56
37291;BME280;23175;-33.706;151.094;2023-03-13T08:04:31;99944.53;;;22.83;48.24
37291;BME280;23175;-33.706;151.094;2023-03-13T08:07:01;99944.77;;;22.53;48.18
37291;BME280;23175;-33.706;151.094;2023-03-13T08:09:33;99939.14;;;22.64;48.24
37291;BME280;23175;-33.706;151.094;2023-03-13T08:12:03;99934.87;;;22.64;48.51
37291;BME280;23175;-33.706;151.094;2023-03-13T08:14:34;99931.04;;;21.73;49.87
37291;BME280;23175;-33.706;151.094;2023-03-13T08:17:03;99926.76;;;21.82;49.31
37291;BME280;23175;-33.706;151.094;2023-03-13T08:19:34;99925.62;;;21.70;49.39
37291;BME280;23175;-33.706;151.094;2023-03-13T08:22:04;99923.31;;;22.66;47.81
37291;BME280;23175;-33.706;151.094;2023-03-13T08:24:34;99926.03;;;22.45;48.20
37291;BME280;23175;-33.706;151.094;2023-03-13T08:27:10;99927.62;;;22.17;48.48
37291;BME280;23175;-33.706;151.094;2023-03-13T08:29:39;99927.77;;;21.91;49.10
37291;BME280;23175;-33.706;151.094;2023-03-13T08:32:10;99933.38;;;22.30;48.25
37291;BME280;23175;-33.706;151.094;2023-03-13T08:34:40;99933.75;;;21.53;49.57
37291;BME280;23175;-33.706;151.094;2023-03-13T08:37:15;99933.95;;;21.95;49.09
37291;BME280;23175;-33.706;151.094;2023-03-13T08:39:45;99938.87;;;18.81;53.15
37291;BME280;23175;-33.706;151.094;2023-03-13T08:42:15;99935.45;;;20.50;51.08
37291;BME280;23175;-33.706;151.094;2023-03-13T08:44:45;99933.82;;;20.41;51.38
37291;BME280;23175;-33.706;151.094;2023-03-13T08:47:16;99930.97;;;19.94;51.91
37291;BME280;23175;-33.706;151.094;2023-03-13T08:49:46;99931.69;;;21.11;49.92
37291;BME280;23175;-33.706;151.094;2023-03-13T08:52:16;99937.64;;;20.17;51.90
37291;BME280;23175;-33.706;151.094;2023-03-13T08:54:48;99937.00;;;22.23;48.50
37291;BME280;23175;-33.706;151.094;2023-03-13T08:57:18;99940.80;;;22.40;47.60
37291;BME280;23175;-33.706;151.094;2023-03-13T08:59:48;99948.10;;;21.76;47.48
37291;BME280;23175;-33.706;151.094;2023-03-13T09:02:19;99952.51;;;22.49;47.05
37291;BME280;23175;-33.706;151.094;2023-03-13T09:04:49;99958.83;;;22.26;47.79
37291;BME280;23175;-33.706;151.094;2023-03-13T09:07:19;99964.44;;;22.21;48.17
37291;BME280;23175;-33.706;151.094;2023-03-13T09:09:50;99969.21;;;22.43;47.87
37291;BME280;23175;-33.706;151.094;2023-03-13T09:12:20;99974.59;;;22.86;47.68
37291;BME280;23175;-33.706;151.094;2023-03-13T09:14:50;99978.26;;;22.13;48.09
37291;BME280;23175;-33.706;151.094;2023-03-13T09:17:21;99985.04;;;22.35;47.83
37291;BME280;23175;-33.706;151.094;2023-03-13T09:19:50;99989.09;;;22.25;47.69
37291;BME280;23175;-33.706;151.094;2023-03-13T09:22:20;99995.02;;;22.41;47.25
37291;BME280;23175;-33.706;151.094;2023-03-13T09:24:50;100001.57;;;22.35;47.51
37291;BME280;23175;-33.706;151.094;2023-03-13T09:27:21;100008.62;;;22.30;47.56
37291;BME280;23175;-33.706;151.094;2023-03-13T09:29:51;100015.43;;;22.22;47.32
37291;BME280;23175;-33.706;151.094;2023-03-13T09:32:21;100017.89;;;22.25;47.25
37291;BME280;23175;-33.706;151.094;2023-03-13T09:34:52;100017.92;;;22.35;47.49
37291;BME280;23175;-33.706;151.094;2023-03-13T09:37:22;100023.72;;;22.45;47.40
37291;BME280;23175;-33.706;151.094;2023-03-13T09:39:52;100025.48;;;22.19;47.61
37291;BME280;23175;-33.706;151.094;2023-03-13T09:42:29;100024.88;;;22.35;47.91
37291;BME280;23175;-33.706;151.094;2023-03-13T09:45:05;100018.58;;;22.29;47.46
37291;BME280;23175;-33.706;151.094;2023-03-13T09:47:42;100015.44;;;22.44;47.71
37291;BME280;23175;-33.706;151.094;2023-03-13T09:50:18;100017.94;;;21.94;47.91
37291;BME280;23175;-33.706;151.094;2023-03-13T09:52:52;100018.49;;;22.13;47.62
37291;BME280;23175;-33.706;151.094;2023-03-13T09:55:26;100017.30;;;22.14;47.69
37291;BME280;23175;-33.706;151.094;2023-03-13T09:58:02;100015.97;;;21.94;47.72
37291;BME280;23175;-33.706;151.094;2023-03-13T10:00:35;100020.11;;;22.05;47.45
37291;BME280;23175;-33.706;151.094;2023-03-13T10:03:11;100026.48;;;22.21;47.40
37291;BME280;23175;-33.706;151.094;2023-03-13T10:05:47;100028.25;;;22.02;47.45
37291;BME280;23175;-33.706;151.094;2023-03-13T10:08:20;100030.10;;;22.17;47.42
37291;BME280;23175;-33.706;151.094;2023-03-13T10:10:56;100034.21;;;22.04;47.66
37291;BME280;23175;-33.706;151.094;2023-03-13T10:13:32;100037.28;;;21.98;47.75
37291;BME280;23175;-33.706;151.094;2023-03-13T10:16:08;100042.69;;;21.94;47.86
37291;BME280;23175;-33.706;151.094;2023-03-13T10:18:44;100047.13;;;22.18;47.89
37291;BME280;23175;-33.706;151.094;2023-03-13T10:21:19;100046.84;;;22.07;47.57
37291;BME280;23175;-33.706;151.094;2023-03-13T10:23:57;100051.89;;;21.76;47.58
37291;BME280;23175;-33.706;151.094;2023-03-13T10:26:30;100057.81;;;21.72;47.94
37291;BME280;23175;-33.706;151.094;2023-03-13T10:29:11;100061.83;;;21.76;47.95
37291;BME280;23175;-33.706;151.094;2023-03-13T10:31:49;100065.68;;;22.05;47.85
37291;BME280;23175;-33.706;151.094;2023-03-13T10:34:23;100063.31;;;22.01;48.11
37291;BME280;23175;-33.706;151.094;2023-03-13T10:36:58;100061.42;;;21.64;48.01
37291;BME280;23175;-33.706;151.094;2023-03-13T10:39:30;100058.61;;;21.91;48.40
37291;BME280;23175;-33.706;151.094;2023-03-13T10:42:10;100055.53;;;22.11;47.90
37291;BME280;23175;-33.706;151.094;2023-03-13T10:44:47;100052.54;;;22.12;47.90
37291;BME280;23175;-33.706;151.094;2023-03-13T10:47:20;100053.65;;;22.10;48.07
37291;BME280;23175;-33.706;151.094;2023-03-13T10:49:54;100051.62;;;20.38;50.09
37291;BME280;23175;-33.706;151.094;2023-03-13T10:52:33;100048.48;;;21.70;48.97
37291;BME280;23175;-33.706;151.094;2023-03-13T10:55:06;100046.66;;;21.79;48.94
37291;BME280;23175;-33.706;151.094;2023-03-13T10:57:39;100050.40;;;22.14;48.15
37291;BME280;23175;-33.706;151.094;2023-03-13T11:00:31;100049.83;;;21.64;48.82
37291;BME280;23175;-33.706;151.094;2023-03-13T11:03:11;100045.87;;;21.56;48.86
37291;BME280;23175;-33.706;151.094;2023-03-13T11:05:45;100048.29;;;22.02;48.05
37291;BME280;23175;-33.706;151.094;2023-03-13T11:08:24;100053.83;;;21.81;47.67
37291;BME280;23175;-33.706;151.094;2023-03-13T11:11:00;100052.28;;;21.77;47.63
37291;BME280;23175;-33.706;151.094;2023-03-13T11:13:38;100049.93;;;22.10;47.52
37291;BME280;23175;-33.706;151.094;2023-03-13T11:16:18;100051.11;;;20.22;50.25
37291;BME280;23175;-33.706;151.094;2023-03-13T11:19:33;100050.28;;;20.93;48.23
37291;BME280;23175;-33.706;151.094;2023-03-13T11:22:17;100049.48;;;20.78;48.72
37291;BME280;23175;-33.706;151.094;2023-03-13T11:24:56;100044.66;;;20.97;48.30
37291;BME280;23175;-33.706;151.094;2023-03-13T11:27:34;100040.75;;;21.07;48.90
37291;BME280;23175;-33.706;151.094;2023-03-13T11:30:17;100044.20;;;20.45;50.07
37291;BME280;23175;-33.706;151.094;2023-03-13T11:32:52;100046.87;;;20.08;49.67
37291;BME280;23175;-33.706;151.094;2023-03-13T11:35:35;100042.01;;;21.35;48.60
37291;BME280;23175;-33.706;151.094;2023-03-13T11:38:12;100037.02;;;21.55;48.11
37291;BME280;23175;-33.706;151.094;2023-03-13T11:40:51;100036.13;;;21.70;47.90
37291;BME280;23175;-33.706;151.094;2023-03-13T11:43:37;100035.90;;;21.73;47.86
37291;BME280;23175;-33.706;151.094;2023-03-13T11:46:23;100036.17;;;21.94;47.22
37291;BME280;23175;-33.706;151.094;2023-03-13T11:49:16;100034.92;;;21.82;47.54
37291;BME280;23175;-33.706;151.094;2023-03-13T11:51:57;100037.27;;;21.45;47.48
37291;BME280;23175;-33.706;151.094;2023-03-13T11:54:40;100038.13;;;21.89;47.30
37291;BME280;23175;-33.706;151.094;2023-03-13T11:57:18;100039.66;;;21.81;47.21
37291;BME280;23175;-33.706;151.094;2023-03-13T12:00:06;100041.90;;;21.40;47.18
37291;BME280;23175;-33.706;151.094;2023-03-13T12:02:46;100041.42;;;21.39;47.69
37291;BME280;23175;-33.706;151.094;2023-03-13T12:05:20;100045.99;;;21.89;47.20
37291;BME280;23175;-33.706;151.094;2023-03-13T12:07:56;100045.54;;;21.46;47.34
37291;BME280;23175;-33.706;151.094;2023-03-13T12:10:32;100047.93;;;21.82;47.40
37291;BME280;23175;-33.706;151.094;2023-03-13T12:13:09;100044.79;;;21.86;47.26
37291;BME280;23175;-33.706;151.094;2023-03-13T12:15:45;100041.01;;;21.78;46.99
37291;BME280;23175;-33.706;151.094;2023-03-13T12:18:19;100035.32;;;21.88;46.43
37291;BME280;23175;-33.706;151.094;2023-03-13T12:20:57;100028.55;;;21.52;47.49
37291;BME280;23175;-33.706;151.094;2023-03-13T12:23:41;100025.72;;;21.48;47.51
37291;BME280;23175;-33.706;151.094;2023-03-13T12:26:15;100028.57;;;21.97;46.90
37291;BME280;23175;-33.706;151.094;2023-03-13T12:28:51;100024.33;;;21.84;47.17
37291;BME280;23175;-33.706;151.094;2023-03-13T12:31:30;100022.00;;;21.61;46.95
37291;BME280;23175;-33.706;151.094;2023-03-13T12:34:11;100022.72;;;21.72;47.38
37291;BME280;23175;-33.706;151.094;2023-03-13T12:36:48;100021.44;;;21.89;46.64
37291;BME280;23175;-33.706;151.094;2023-03-13T12:39:29;100023.19;;;21.43;46.85
37291;BME280;23175;-33.706;151.094;2023-03-13T12:42:21;100027.27;;;21.69;46.98
37291;BME280;23175;-33.706;151.094;2023-03-13T12:45:00;100025.50;;;21.77;46.96
37291;BME280;23175;-33.706;151.094;2023-03-13T12:47:34;100023.24;;;21.49;46.88
37291;BME280;23175;-33.706;151.094;2023-03-13T12:50:32;100024.24;;;21.80;47.14
37291;BME280;23175;-33.706;151.094;2023-03-13T12:53:35;100023.77;;;22.19;46.89
37291;BME280;23175;-33.706;151.094;2023-03-13T12:56:28;100024.83;;;21.62;46.91